createdAt,value
2023-02-17T00:01:27.456Z,29.67
2023-02-17T00:03:55.483Z,28.07
2023-02-17T00:06:29.405Z,32.87
2023-02-17T00:08:58.000Z,31.63
2023-02-17T00:11:25.474Z,31.67
2023-02-17T00:13:56.143Z,28.23
2023-02-17T00:16:25.394Z,31.77
2023-02-17T00:18:54.867Z,30.57
2023-02-17T00:21:23.961Z,32.30
2023-02-17T00:23:53.330Z,35.03
2023-02-17T00:26:21.518Z,31.50
2023-02-17T00:28:49.596Z,32.70
2023-02-17T00:31:20.018Z,29.40
2023-02-17T00:33:47.713Z,32.73
2023-02-17T00:36:17.685Z,26.40
2023-02-17T00:38:45.232Z,27.27
2023-02-17T00:41:14.042Z,25.70
2023-02-17T00:43:41.494Z,28.57
2023-02-17T00:46:09.328Z,27.83
2023-02-17T00:48:36.944Z,27.47
2023-02-17T00:51:04.782Z,29.03
2023-02-17T00:53:32.335Z,29.80
2023-02-17T00:55:59.967Z,25.13
2023-02-17T00:58:28.983Z,26.07
2023-02-17T01:00:56.957Z,29.63
2023-02-17T01:03:25.080Z,26.00
2023-02-17T01:05:52.800Z,29.17
2023-02-17T01:08:20.257Z,29.53
2023-02-17T01:10:48.691Z,26.93
2023-02-17T01:13:17.500Z,26.63
2023-02-17T01:15:48.683Z,26.37
2023-02-17T01:18:16.460Z,29.90
2023-02-17T01:20:44.475Z,27.17
2023-02-17T01:23:12.876Z,28.27
2023-02-17T01:25:41.332Z,28.10
2023-02-17T01:28:09.663Z,28.23
2023-02-17T01:30:37.118Z,27.53
2023-02-17T01:33:06.023Z,28.87
2023-02-17T01:35:34.374Z,25.13
2023-02-17T01:38:01.953Z,28.37
2023-02-17T01:40:30.177Z,26.10
2023-02-17T01:42:57.703Z,26.10
2023-02-17T01:45:35.245Z,26.83
2023-02-17T01:48:08.988Z,27.20
2023-02-17T01:50:40.353Z,28.57
2023-02-17T01:53:08.982Z,27.03
2023-02-17T01:55:38.672Z,27.70
2023-02-17T01:58:08.754Z,27.70
2023-02-17T02:00:36.993Z,25.50
2023-02-17T02:03:05.533Z,27.20
2023-02-17T02:05:36.540Z,27.57
2023-02-17T02:08:05.628Z,23.83
2023-02-17T02:10:33.139Z,24.00
2023-02-17T02:13:00.898Z,22.00
2023-02-17T02:15:32.883Z,23.03
2023-02-17T02:18:22.946Z,25.20
2023-02-17T02:21:19.627Z,23.53
2023-02-17T02:23:54.269Z,22.10
2023-02-17T02:26:59.138Z,20.30
2023-02-17T02:29:47.739Z,22.33
2023-02-17T02:32:40.886Z,23.10
2023-02-17T02:35:10.874Z,22.97
2023-02-17T02:37:42.024Z,23.10
2023-02-17T02:40:11.704Z,23.67
2023-02-17T02:42:40.188Z,21.57
2023-02-17T02:45:09.189Z,22.50
2023-02-17T02:47:44.422Z,20.30
2023-02-17T02:50:13.457Z,23.30
2023-02-17T02:52:49.283Z,22.43
2023-02-17T02:55:20.259Z,22.90
2023-02-17T02:57:53.788Z,19.37
2023-02-17T03:00:25.178Z,24.10
2023-02-17T03:02:57.206Z,22.37
2023-02-17T03:05:29.768Z,23.13
2023-02-17T03:08:00.307Z,19.07
2023-02-17T03:10:27.822Z,23.17
2023-02-17T03:12:55.326Z,17.97
2023-02-17T03:15:27.018Z,17.20
2023-02-17T03:17:57.455Z,18.80
2023-02-17T03:20:25.031Z,18.50
2023-02-17T03:22:52.608Z,17.10
2023-02-17T03:25:20.161Z,15.40
2023-02-17T03:27:47.677Z,18.17
2023-02-17T03:30:15.293Z,19.83
2023-02-17T03:32:42.902Z,18.57
2023-02-17T03:35:12.055Z,20.80
2023-02-17T03:37:39.584Z,20.30
2023-02-17T03:40:09.023Z,18.17
2023-02-17T03:42:37.009Z,20.43
2023-02-17T03:45:04.726Z,15.07
2023-02-17T03:47:32.606Z,17.87
2023-02-17T03:50:00.083Z,20.90
2023-02-17T03:52:28.946Z,14.73
2023-02-17T03:54:56.400Z,14.27
2023-02-17T03:57:23.907Z,20.43
2023-02-17T03:59:51.578Z,22.30
2023-02-17T04:02:19.052Z,18.47
2023-02-17T04:04:46.536Z,13.40
2023-02-17T04:07:14.292Z,13.23
2023-02-17T04:09:43.223Z,19.47
2023-02-17T04:12:10.710Z,11.00
2023-02-17T04:14:38.161Z,14.50
2023-02-17T04:17:05.630Z,9.13
2023-02-17T04:19:33.082Z,12.93
2023-02-17T04:22:00.517Z,10.23
2023-02-17T04:24:27.995Z,10.10
2023-02-17T04:26:56.821Z,10.67
2023-02-17T04:29:24.294Z,10.90
2023-02-17T04:31:51.886Z,10.20
2023-02-17T04:34:19.464Z,11.40
2023-02-17T04:36:46.928Z,10.07
2023-02-17T04:39:14.420Z,9.00
2023-02-17T04:41:41.883Z,11.00
2023-02-17T04:44:11.560Z,9.93
2023-02-17T04:46:39.179Z,10.07
2023-02-17T04:49:06.787Z,7.77
2023-02-17T04:51:34.371Z,12.00
2023-02-17T04:54:02.546Z,13.40
2023-02-17T04:56:30.207Z,8.97
2023-02-17T04:58:57.962Z,8.70
2023-02-17T05:01:27.023Z,8.87
2023-02-17T05:03:55.125Z,12.10
2023-02-17T05:06:23.929Z,9.33
2023-02-17T05:08:53.603Z,10.00
2023-02-17T05:11:21.500Z,10.40
2023-02-17T05:13:49.913Z,8.43
2023-02-17T05:16:17.893Z,9.63
2023-02-17T05:18:46.800Z,8.40
2023-02-17T05:21:14.298Z,7.40
2023-02-17T05:23:42.174Z,8.97
2023-02-17T05:26:10.187Z,7.53
2023-02-17T05:28:38.177Z,11.73
2023-02-17T05:31:06.523Z,7.87
2023-02-17T05:33:34.124Z,11.10
2023-02-17T05:36:05.601Z,7.10
2023-02-17T05:38:34.718Z,6.37
2023-02-17T05:41:02.365Z,9.10
2023-02-17T05:43:29.918Z,6.67
2023-02-17T05:45:57.418Z,7.73
2023-02-17T05:48:24.923Z,8.43
2023-02-17T05:50:52.412Z,8.43
2023-02-17T05:53:21.416Z,6.87
2023-02-17T05:55:48.971Z,7.50
2023-02-17T05:58:16.442Z,6.20
2023-02-17T06:00:43.932Z,6.20
2023-02-17T06:03:11.461Z,7.90
2023-02-17T06:05:39.237Z,6.27
2023-02-17T06:08:07.135Z,10.20
2023-02-17T06:10:35.990Z,8.33
2023-02-17T06:13:03.490Z,7.67
2023-02-17T06:15:31.177Z,5.60
2023-02-17T06:17:58.637Z,6.13
2023-02-17T06:20:26.140Z,5.80
2023-02-17T06:22:53.616Z,6.50
2023-02-17T06:25:21.079Z,7.33
2023-02-17T06:27:49.924Z,6.27
2023-02-17T06:30:17.558Z,5.47
2023-02-17T06:32:45.110Z,8.50
2023-02-17T06:35:12.601Z,5.70
2023-02-17T06:37:40.093Z,7.13
2023-02-17T06:40:08.774Z,6.30
2023-02-17T06:42:36.306Z,6.20
2023-02-17T06:45:06.130Z,4.17
2023-02-17T06:47:33.675Z,6.23
2023-02-17T06:50:01.197Z,5.23
2023-02-17T06:52:28.973Z,5.57
2023-02-17T06:54:56.519Z,5.63
2023-02-17T06:57:24.544Z,5.63
2023-02-17T06:59:52.043Z,5.20
2023-02-17T07:02:21.155Z,6.83
2023-02-17T07:04:49.048Z,5.00
2023-02-17T07:07:16.629Z,6.30
2023-02-17T07:09:44.491Z,5.43
2023-02-17T07:12:12.008Z,5.90
2023-02-17T07:14:39.603Z,5.57
2023-02-17T07:17:07.163Z,4.17
2023-02-17T07:19:35.995Z,5.00
2023-02-17T07:22:03.676Z,4.53
2023-02-17T07:24:31.187Z,4.33
2023-02-17T07:26:58.662Z,5.50
2023-02-17T07:29:26.131Z,4.50
2023-02-17T07:31:53.800Z,4.70
2023-02-17T07:34:22.746Z,5.20
2023-02-17T07:36:51.558Z,5.40
2023-02-17T07:39:19.012Z,4.67
2023-02-17T07:41:46.597Z,4.97
2023-02-17T07:44:14.558Z,7.40
2023-02-17T07:46:42.083Z,4.90
2023-02-17T07:49:09.806Z,5.00
2023-02-17T07:51:37.309Z,4.73
2023-02-17T07:54:06.661Z,4.80
2023-02-17T07:56:34.144Z,3.60
2023-02-17T07:59:01.684Z,4.80
2023-02-17T08:01:29.161Z,4.03
2023-02-17T08:03:57.384Z,5.03
2023-02-17T08:06:26.215Z,5.17
2023-02-17T08:09:12.112Z,3.80
2023-02-17T08:11:59.360Z,5.40
2023-02-17T08:14:29.039Z,4.17
2023-02-17T08:16:56.744Z,4.80
2023-02-17T08:19:27.197Z,3.93
2023-02-17T08:22:00.002Z,4.20
2023-02-17T08:24:27.594Z,2.97
2023-02-17T08:26:56.660Z,3.57
2023-02-17T08:29:24.218Z,3.20
2023-02-17T08:31:53.558Z,4.20
2023-02-17T08:34:21.194Z,3.37
2023-02-17T08:36:48.880Z,3.23
2023-02-17T08:39:18.600Z,4.83
2023-02-17T08:41:46.589Z,3.63
2023-02-17T08:44:17.623Z,3.50
2023-02-17T08:46:47.899Z,5.47
2023-02-17T08:49:16.123Z,3.30
2023-02-17T08:51:44.109Z,4.00
2023-02-17T08:54:11.967Z,4.40
2023-02-17T08:56:40.513Z,3.97
2023-02-17T08:59:09.299Z,4.80
2023-02-17T09:01:38.327Z,4.10
2023-02-17T09:04:07.610Z,3.90
2023-02-17T09:06:36.566Z,5.70
2023-02-17T09:09:04.843Z,5.80
2023-02-17T09:11:32.356Z,4.50
2023-02-17T09:13:59.940Z,4.40
2023-02-17T09:16:27.624Z,4.63
2023-02-17T09:18:56.638Z,4.77
2023-02-17T09:21:24.366Z,5.27
2023-02-17T09:23:53.656Z,6.20
2023-02-17T09:26:21.573Z,4.80
2023-02-17T09:28:49.467Z,5.60
2023-02-17T09:31:19.241Z,6.73
2023-02-17T09:33:48.321Z,6.90
2023-02-17T09:36:19.019Z,4.90
2023-02-17T09:38:46.640Z,6.17
2023-02-17T09:41:19.460Z,5.77
2023-02-17T09:43:47.014Z,6.03
2023-02-17T09:46:18.152Z,6.00
2023-02-17T09:48:47.781Z,6.43
2023-02-17T09:51:22.160Z,6.20
2023-02-17T09:53:53.149Z,5.27
2023-02-17T09:56:24.713Z,6.57
2023-02-17T09:58:54.980Z,6.90
2023-02-17T10:01:25.531Z,6.27
2023-02-17T10:04:07.443Z,8.17
2023-02-17T10:06:38.490Z,9.67
2023-02-17T10:09:12.830Z,6.00
2023-02-17T10:11:43.497Z,5.10
2023-02-17T10:14:13.661Z,6.70
2023-02-17T10:16:47.030Z,6.13
2023-02-17T10:19:18.325Z,7.50
2023-02-17T10:21:50.628Z,6.27
2023-02-17T10:24:18.133Z,8.07
2023-02-17T10:26:54.555Z,6.50
2023-02-17T10:29:32.879Z,5.80
2023-02-17T10:32:12.553Z,7.33
2023-02-17T10:34:44.013Z,6.33
2023-02-17T10:37:15.807Z,5.70
2023-02-17T10:39:48.427Z,4.87
2023-02-17T10:42:22.307Z,5.77
2023-02-17T10:44:51.300Z,6.10
2023-02-17T10:47:19.115Z,5.97
2023-02-17T10:49:49.494Z,3.93
2023-02-17T10:52:19.885Z,4.37
2023-02-17T10:54:51.840Z,5.40
2023-02-17T10:57:21.005Z,3.73
2023-02-17T10:59:49.479Z,3.40
2023-02-17T11:02:19.918Z,2.87
2023-02-17T11:04:49.741Z,3.33
2023-02-17T11:07:20.220Z,4.10
2023-02-17T11:09:49.265Z,4.17
2023-02-17T11:12:20.416Z,3.70
2023-02-17T11:14:49.820Z,4.20
2023-02-17T11:17:22.828Z,3.20
2023-02-17T11:19:59.216Z,4.13
2023-02-17T11:22:35.302Z,3.53
2023-02-17T11:25:06.463Z,3.27
2023-02-17T11:27:33.981Z,3.60
2023-02-17T11:30:10.794Z,4.30
2023-02-17T11:32:38.384Z,3.10
2023-02-17T11:35:06.289Z,3.57
2023-02-17T11:37:39.206Z,2.83
2023-02-17T11:40:26.050Z,3.47
2023-02-17T11:42:58.372Z,2.50
2023-02-17T11:45:27.541Z,2.87
2023-02-17T11:48:06.150Z,2.20
2023-02-17T11:50:41.709Z,3.00
2023-02-17T11:53:24.941Z,2.43
2023-02-17T11:56:03.338Z,2.63
2023-02-17T11:58:40.216Z,2.67
2023-02-17T12:01:21.283Z,2.50
2023-02-17T12:04:05.536Z,3.40
2023-02-17T12:06:39.838Z,1.97
2023-02-17T12:09:16.176Z,1.67
2023-02-17T12:11:48.892Z,1.67
2023-02-17T12:14:44.238Z,1.97
2023-02-17T12:17:18.110Z,3.50
2023-02-17T12:19:51.057Z,1.50
2023-02-17T12:22:20.321Z,2.97
2023-02-17T12:25:16.810Z,2.80
2023-02-17T12:27:51.710Z,3.20
2023-02-17T12:30:27.905Z,1.80
2023-02-17T12:33:09.800Z,1.87
2023-02-17T12:35:44.016Z,2.30
2023-02-17T12:38:13.255Z,2.80
2023-02-17T12:40:46.103Z,2.40
2023-02-17T12:43:23.859Z,2.20
2023-02-17T12:45:52.405Z,2.30
2023-02-17T12:48:26.730Z,2.77
2023-02-17T12:50:58.992Z,1.90
2023-02-17T12:53:34.682Z,2.20
2023-02-17T12:56:05.891Z,2.20
2023-02-17T12:58:34.247Z,3.43
2023-02-17T13:01:07.199Z,1.67
2023-02-17T13:03:36.147Z,1.40
2023-02-17T13:06:07.437Z,1.40
2023-02-17T13:08:38.170Z,1.43
2023-02-17T13:11:11.738Z,1.80
2023-02-17T13:13:39.290Z,2.77
2023-02-17T13:16:11.136Z,1.40
2023-02-17T13:18:40.383Z,1.17
2023-02-17T13:21:20.398Z,1.50
2023-02-17T13:24:00.860Z,1.90
2023-02-17T13:26:31.766Z,1.20
2023-02-17T13:29:22.292Z,1.43
2023-02-17T13:31:52.399Z,1.57
2023-02-17T13:34:32.726Z,1.27
2023-02-17T13:37:03.352Z,1.97
2023-02-17T13:39:36.848Z,1.33
2023-02-17T13:42:25.526Z,1.63
2023-02-17T13:44:53.084Z,3.43
2023-02-17T13:47:32.574Z,1.90
2023-02-17T13:50:00.047Z,1.97
2023-02-17T13:52:29.120Z,1.93
2023-02-17T13:54:58.849Z,1.80
2023-02-17T13:57:30.188Z,1.53
2023-02-17T14:00:07.681Z,3.10
2023-02-17T14:02:38.465Z,1.60
2023-02-17T14:05:15.949Z,1.80
2023-02-17T14:07:43.436Z,3.00
2023-02-17T14:10:19.141Z,1.90
2023-02-17T14:12:48.961Z,2.40
2023-02-17T14:15:18.026Z,2.10
2023-02-17T14:17:45.707Z,1.53
2023-02-17T14:20:30.364Z,2.73
2023-02-17T14:23:04.781Z,1.90
2023-02-17T14:25:35.113Z,2.30
2023-02-17T14:28:04.580Z,1.50
2023-02-17T14:30:35.423Z,1.87
2023-02-17T14:33:07.815Z,2.43
2023-02-17T14:35:36.115Z,1.47
2023-02-17T14:38:20.651Z,1.77
2023-02-17T14:40:48.295Z,2.33
2023-02-17T14:43:17.231Z,1.73
2023-02-17T14:45:44.699Z,1.50
2023-02-17T14:48:12.265Z,1.67
2023-02-17T14:50:42.387Z,1.63
2023-02-17T14:53:13.206Z,2.13
2023-02-17T14:55:45.584Z,1.43
2023-02-17T14:58:20.984Z,1.30
2023-02-17T15:00:48.984Z,1.67
2023-02-17T15:03:16.510Z,2.00
2023-02-17T15:05:44.220Z,1.83
2023-02-17T15:08:14.324Z,1.80
2023-02-17T15:10:41.899Z,1.30
2023-02-17T15:13:12.266Z,1.40
2023-02-17T15:15:44.737Z,1.80
2023-02-17T15:18:12.703Z,1.70
2023-02-17T15:20:42.531Z,1.70
2023-02-17T15:23:13.089Z,1.23
2023-02-17T15:25:40.668Z,1.87
2023-02-17T15:28:08.357Z,1.33
2023-02-17T15:30:37.421Z,2.13
2023-02-17T15:33:09.882Z,2.87
2023-02-17T15:35:37.448Z,1.60
2023-02-17T15:38:05.103Z,1.87
2023-02-17T15:40:34.697Z,1.10
2023-02-17T15:43:03.485Z,1.37
2023-02-17T15:45:31.646Z,1.43
2023-02-17T15:48:08.821Z,1.60
2023-02-17T15:50:40.139Z,1.00
2023-02-17T15:53:07.794Z,0.90
2023-02-17T15:55:36.113Z,1.07
2023-02-17T15:58:05.236Z,1.17
2023-02-17T16:00:34.514Z,0.90
2023-02-17T16:03:02.534Z,1.10
2023-02-17T16:05:30.933Z,1.73
2023-02-17T16:08:00.049Z,1.00
2023-02-17T16:10:28.342Z,1.17
2023-02-17T16:12:57.441Z,3.80
2023-02-17T16:15:26.220Z,1.20
2023-02-17T16:17:55.696Z,0.93
2023-02-17T16:20:24.336Z,1.30
2023-02-17T16:22:52.640Z,1.97
2023-02-17T16:25:22.774Z,1.53
2023-02-17T16:28:10.711Z,1.40
2023-02-17T16:30:38.567Z,1.20
2023-02-17T16:33:07.035Z,1.00
2023-02-17T16:35:34.771Z,1.53
2023-02-17T16:38:04.196Z,1.33
2023-02-17T16:40:36.037Z,1.17
2023-02-17T16:43:04.321Z,1.00
2023-02-17T16:45:33.353Z,1.17
2023-02-17T16:48:01.930Z,4.60
2023-02-17T16:50:31.445Z,1.23
2023-02-17T16:53:01.413Z,1.10
2023-02-17T16:55:31.695Z,1.57
2023-02-17T16:58:01.000Z,1.10
2023-02-17T17:00:31.394Z,1.00
2023-02-17T17:02:59.657Z,0.80
2023-02-17T17:05:28.936Z,1.07
2023-02-17T17:07:57.050Z,1.37
2023-02-17T17:10:26.485Z,1.10
2023-02-17T17:12:54.319Z,1.10
2023-02-17T17:15:23.593Z,1.00
2023-02-17T17:17:54.523Z,1.10
2023-02-17T17:20:27.382Z,1.20
2023-02-17T17:22:55.096Z,2.10
2023-02-17T17:25:22.698Z,1.20
2023-02-17T17:27:58.594Z,0.90
2023-02-17T17:30:31.748Z,2.70
2023-02-17T17:32:59.754Z,0.80
2023-02-17T17:35:28.036Z,1.10
2023-02-17T17:37:59.928Z,1.43
2023-02-17T17:40:30.027Z,2.60
2023-02-17T17:42:57.774Z,1.03
2023-02-17T17:45:28.066Z,1.73
2023-02-17T17:47:55.696Z,1.27
2023-02-17T17:50:25.677Z,1.63
2023-02-17T17:52:53.551Z,1.40
2023-02-17T17:55:21.150Z,1.57
2023-02-17T17:57:49.320Z,1.90
2023-02-17T18:00:18.277Z,3.47
2023-02-17T18:02:47.262Z,2.03
2023-02-17T18:05:16.863Z,1.70
2023-02-17T18:07:50.364Z,2.60
2023-02-17T18:10:17.989Z,1.73
2023-02-17T18:12:46.645Z,1.73
2023-02-17T18:15:15.055Z,2.10
2023-02-17T18:17:43.430Z,2.10
2023-02-17T18:20:13.204Z,2.13
2023-02-17T18:22:40.860Z,1.70
2023-02-17T18:25:09.163Z,1.60
2023-02-17T18:27:41.253Z,2.27
2023-02-17T18:30:11.282Z,1.93
2023-02-17T18:32:38.749Z,3.97
2023-02-17T18:35:06.649Z,1.10
2023-02-17T18:37:35.781Z,1.60
2023-02-17T18:40:04.302Z,1.80
2023-02-17T18:42:32.591Z,1.33
2023-02-17T18:45:00.187Z,1.53
2023-02-17T18:47:27.793Z,1.83
2023-02-17T18:49:55.538Z,2.13
2023-02-17T18:52:23.223Z,1.70
2023-02-17T18:54:52.194Z,2.13
2023-02-17T18:57:19.873Z,1.77
2023-02-17T18:59:47.495Z,2.13
2023-02-17T19:02:15.495Z,1.90
2023-02-17T19:04:43.437Z,4.60
2023-02-17T19:07:12.471Z,2.70
2023-02-17T19:09:42.702Z,2.20
2023-02-17T19:12:13.527Z,2.00
2023-02-17T19:14:44.684Z,1.73
2023-02-17T19:17:13.049Z,1.53
2023-02-17T19:19:43.263Z,2.70
2023-02-17T19:22:17.348Z,1.73
2023-02-17T19:24:46.691Z,2.20
2023-02-17T19:27:17.840Z,3.60
2023-02-17T19:29:45.497Z,2.13
2023-02-17T19:32:16.129Z,1.73
2023-02-17T19:34:46.080Z,2.53
2023-02-17T19:37:15.415Z,1.80
2023-02-17T19:39:45.305Z,2.53
2023-02-17T19:42:15.429Z,2.00
2023-02-17T19:44:44.502Z,1.80
2023-02-17T19:47:14.810Z,2.37
2023-02-17T19:49:42.445Z,2.53
2023-02-17T19:52:14.533Z,1.80
2023-02-17T19:54:42.138Z,2.87
2023-02-17T19:57:09.890Z,2.43
2023-02-17T19:59:40.238Z,2.90
2023-02-17T20:02:13.039Z,2.33
2023-02-17T20:04:40.702Z,1.90
2023-02-17T20:07:08.444Z,2.43
2023-02-17T20:09:38.292Z,3.23
2023-02-17T20:12:08.762Z,2.47
2023-02-17T20:14:38.444Z,2.47
2023-02-17T20:17:06.090Z,2.60
2023-02-17T20:19:37.738Z,3.07
2023-02-17T20:22:05.492Z,3.10
2023-02-17T20:24:35.225Z,4.40
2023-02-17T20:27:03.134Z,4.83
2023-02-17T20:29:31.140Z,3.17
2023-02-17T20:31:58.908Z,2.60
2023-02-17T20:34:29.832Z,5.40
2023-02-17T20:37:00.572Z,3.57
2023-02-17T20:39:33.467Z,3.17
2023-02-17T20:42:01.636Z,3.97
2023-02-17T20:44:32.081Z,2.97
2023-02-17T20:47:02.947Z,5.00
2023-02-17T20:49:30.653Z,4.20
2023-02-17T20:51:59.805Z,4.40
2023-02-17T20:54:27.482Z,2.93
2023-02-17T20:56:57.773Z,3.97
2023-02-17T20:59:25.696Z,3.77
2023-02-17T21:01:53.333Z,3.47
2023-02-17T21:04:20.920Z,3.60
2023-02-17T21:06:48.553Z,4.00
2023-02-17T21:09:19.154Z,3.20
2023-02-17T21:11:47.826Z,4.80
2023-02-17T21:14:15.908Z,2.40
2023-02-17T21:16:43.551Z,2.80
2023-02-17T21:19:11.147Z,3.67
2023-02-17T21:21:41.034Z,6.33
2023-02-17T21:24:08.853Z,3.40
2023-02-17T21:26:37.895Z,3.10
2023-02-17T21:29:08.575Z,4.40
2023-02-17T21:31:37.077Z,5.33
2023-02-17T21:34:05.174Z,3.90
2023-02-17T21:36:35.281Z,4.43
2023-02-17T21:39:04.195Z,4.70
2023-02-17T21:41:32.581Z,3.53
2023-02-17T21:44:18.878Z,4.53
2023-02-17T21:46:48.103Z,5.30
2023-02-17T21:49:15.947Z,4.20
2023-02-17T21:51:43.495Z,5.17
2023-02-17T21:54:11.523Z,3.50
2023-02-17T21:56:39.489Z,3.60
2023-02-17T21:59:08.973Z,3.77
2023-02-17T22:01:36.579Z,3.93
2023-02-17T22:04:04.603Z,6.00
2023-02-17T22:06:39.264Z,4.20
2023-02-17T22:09:08.066Z,4.20
2023-02-17T22:11:37.153Z,5.77
2023-02-17T22:14:06.192Z,4.53
2023-02-17T22:16:37.762Z,4.57
2023-02-17T22:19:07.035Z,3.60
2023-02-17T22:21:34.948Z,5.63
2023-02-17T22:24:03.420Z,4.70
2023-02-17T22:26:31.232Z,4.70
2023-02-17T22:28:58.775Z,3.93
2023-02-17T22:31:28.291Z,5.10
2023-02-17T22:33:58.153Z,4.00
2023-02-17T22:36:27.440Z,5.13
2023-02-17T22:38:55.554Z,4.77
2023-02-17T22:41:24.572Z,4.53
2023-02-17T22:43:52.782Z,5.33
2023-02-17T22:46:21.922Z,4.73
2023-02-17T22:48:51.903Z,4.60
2023-02-17T22:51:22.408Z,5.43
2023-02-17T22:53:50.290Z,5.30
2023-02-17T22:56:17.876Z,5.10
2023-02-17T22:58:45.391Z,6.47
2023-02-17T23:01:14.795Z,5.60
2023-02-17T23:03:43.126Z,7.70
2023-02-17T23:06:13.460Z,6.17
2023-02-17T23:08:44.392Z,5.10
2023-02-17T23:11:13.954Z,5.90
2023-02-17T23:13:41.762Z,5.70
2023-02-17T23:16:11.704Z,5.90
2023-02-17T23:18:39.393Z,6.57
2023-02-17T23:21:12.442Z,5.77
2023-02-17T23:23:40.350Z,5.10
2023-02-17T23:26:09.603Z,5.10
2023-02-17T23:28:37.411Z,6.80
2023-02-17T23:31:05.060Z,5.20
2023-02-17T23:33:32.546Z,7.23
2023-02-17T23:36:00.054Z,4.90
2023-02-17T23:38:27.532Z,6.13
2023-02-17T23:40:56.138Z,4.80
2023-02-17T23:43:25.202Z,6.53
2023-02-17T23:45:56.214Z,5.43
2023-02-17T23:48:23.810Z,5.27
2023-02-17T23:50:56.509Z,5.37
2023-02-17T23:53:24.197Z,4.63
2023-02-17T23:56:01.312Z,4.60
2023-02-17T23:58:30.212Z,5.60
